Time;durP1;ratioP1;P1;durP2;ratioP2;P2;SDS_P1;SDS_P2;PMS_P1;PMS_P2;Temp;Humidity;BMP_temperature;BMP_pressure;BME280_temperature;BME280_humidity;BME280_pressure;Samples;Min_cycle;Max_cycle;Signal;HPM_P1;HPM_P2
2021/11/12 00:14:32;;;;;;;;;;;15.30;99.90;;;;;;5034532;28;755;-50
2021/11/12 00:16:59;;;;;;;;;;;15.30;99.90;;;;;;5034136;28;1059;-50
2021/11/12 00:19:25;;;;;;;;;;;15.30;99.90;;;;;;5034197;28;836;-51
2021/11/12 00:21:52;;;;;;;;;;;15.30;99.90;;;;;;5034631;28;832;-51
2021/11/12 00:24:17;;;;;;;;;;;15.20;99.90;;;;;;5033925;28;864;-50
2021/11/12 00:26:44;;;;;;;;;;;15.20;99.90;;;;;;5034286;28;1031;-49
2021/11/12 00:29:11;;;;;;;;;;;15.20;99.90;;;;;;5034796;28;786;-51
2021/11/12 00:38:01;;;;;;;;;;;15.10;99.90;;;;;;4998145;28;1439;-49
2021/11/12 00:43:36;;;;;;;;;;;15.10;99.90;;;;;;5016707;28;1025;-49
2021/11/12 00:48:47;;;;;;;;;;;15.00;99.90;;;;;;5016621;28;1281;-49
2021/11/12 00:51:17;;;;;;;;;;;15.00;99.90;;;;;;4999311;28;1968;-51
2021/11/12 00:54:06;;;;;;;;;;;15.00;99.90;;;;;;4997807;28;890;-51
2021/11/12 00:56:30;;;;;;;;;;;15.00;99.90;;;;;;4997796;28;1308;-49
2021/11/12 00:58:58;;;;;;;;;;;15.00;99.90;;;;;;4998288;28;999;-49
2021/11/12 01:01:25;;;;;;;;;;;15.00;99.90;;;;;;4997952;28;938;-52
2021/11/12 01:03:52;;;;;;;;;;;14.90;99.90;;;;;;4998003;28;1090;-51
2021/11/12 01:06:19;;;;;;;;;;;14.90;99.90;;;;;;4997832;28;929;-51
2021/11/12 01:08:45;;;;;;;;;;;14.90;99.90;;;;;;5011205;28;1099;-51
2021/11/12 01:11:12;;;;;;;;;;;14.90;99.90;;;;;;5018469;28;1952;-51
2021/11/12 01:13:39;;;;;;;;;;;14.80;99.90;;;;;;5018518;28;830;-52
2021/11/12 01:16:05;;;;;;;;;;;14.80;99.90;;;;;;5036671;28;1376;-49
2021/11/12 01:18:31;;;;;;;;;;;14.80;99.90;;;;;;5019938;28;944;-51
2021/11/12 01:20:58;;;;;;;;;;;14.80;99.90;;;;;;5036790;28;1598;-51
2021/11/12 01:23:24;;;;;;;;;;;14.80;99.90;;;;;;5036851;28;1268;-49
2021/11/12 01:25:50;;;;;;;;;;;14.70;99.90;;;;;;5036592;28;1115;-49
2021/11/12 01:28:15;;;;;;;;;;;14.80;99.90;;;;;;5037137;28;837;-49
2021/11/12 01:30:42;;;;;;;;;;;14.80;99.90;;;;;;5036954;28;1126;-49
2021/11/12 01:33:08;;;;;;;;;;;14.70;99.90;;;;;;5019179;28;1902;-51
2021/11/12 01:35:34;;;;;;;;;;;14.70;99.90;;;;;;5036869;28;1008;-51
2021/11/12 01:38:01;;;;;;;;;;;14.70;99.90;;;;;;5036835;28;841;-51
2021/11/12 01:40:29;;;;;;;;;;;14.70;99.90;;;;;;5018161;28;876;-51
2021/11/12 01:42:59;;;;;;;;;;;14.70;99.90;;;;;;5018606;28;1013;-49
2021/11/12 01:46:08;;;;;;;;;;;14.60;99.90;;;;;;5031371;28;910;-49
2021/11/12 01:50:50;;;;;;;;;;;14.60;99.90;;;;;;5036713;28;834;-49
2021/11/12 01:53:26;;;;;;;;;;;14.60;99.90;;;;;;5018765;28;1906;-49
2021/11/12 01:56:36;;;;;;;;;;;14.60;99.90;;;;;;5019214;28;917;-51
2021/11/12 02:01:26;;;;;;;;;;;14.60;99.90;;;;;;5036580;28;774;-51
2021/11/12 02:03:53;;;;;;;;;;;14.60;99.90;;;;;;5036037;28;913;-51
2021/11/12 02:06:22;;;;;;;;;;;14.60;99.90;;;;;;5036505;28;833;-51
2021/11/12 02:08:48;;;;;;;;;;;14.50;99.90;;;;;;5036552;28;892;-49
2021/11/12 02:11:14;;;;;;;;;;;14.50;99.90;;;;;;5035970;28;1906;-49
2021/11/12 02:13:42;;;;;;;;;;;14.50;99.90;;;;;;5036504;28;798;-50
2021/11/12 02:16:10;;;;;;;;;;;14.50;99.90;;;;;;5035501;28;1186;-51
2021/11/12 02:18:39;;;;;;;;;;;14.50;99.90;;;;;;5036190;28;822;-51
2021/11/12 02:23:44;;;;;;;;;;;14.50;99.90;;;;;;5036010;28;770;-51
2021/11/12 02:26:18;;;;;;;;;;;14.50;99.90;;;;;;5035312;28;886;-51
2021/11/12 02:28:57;;;;;;;;;;;14.50;99.90;;;;;;5034846;28;1003;-49
2021/11/12 02:31:25;;;;;;;;;;;14.40;99.90;;;;;;5017676;28;1910;-51
2021/11/12 02:33:52;;;;;;;;;;;14.40;99.90;;;;;;5017330;28;886;-49
2021/11/12 02:36:19;;;;;;;;;;;14.40;99.90;;;;;;5017699;28;917;-49
2021/11/12 02:38:48;;;;;;;;;;;14.40;99.90;;;;;;5017059;28;1230;-52
2021/11/12 02:41:14;;;;;;;;;;;14.40;99.90;;;;;;5035134;28;866;-51
2021/11/12 02:43:41;;;;;;;;;;;14.40;99.90;;;;;;5035625;28;869;-52
2021/11/12 02:46:08;;;;;;;;;;;14.40;99.90;;;;;;5017044;28;918;-51
2021/11/12 02:48:36;;;;;;;;;;;14.30;99.90;;;;;;5017063;28;905;-52
2021/11/12 02:51:10;;;;;;;;;;;14.40;99.90;;;;;;4999988;28;929;-49
2021/11/12 02:53:37;;;;;;;;;;;14.30;99.90;;;;;;5016751;28;1902;-51
2021/11/12 02:56:08;;;;;;;;;;;14.30;99.90;;;;;;5022557;28;1314;-51
2021/11/12 02:58:37;;;;;;;;;;;14.30;99.90;;;;;;5029933;28;805;-51
2021/11/12 03:01:04;;;;;;;;;;;14.30;99.90;;;;;;5016029;28;1100;-51
2021/11/12 03:03:30;;;;;;;;;;;14.30;99.90;;;;;;5017230;28;899;-49
2021/11/12 03:05:56;;;;;;;;;;;14.30;99.90;;;;;;5017489;28;755;-50
2021/11/12 03:08:22;;;;;;;;;;;14.30;99.90;;;;;;5034985;28;895;-51
2021/11/12 03:10:52;;;;;;;;;;;14.30;99.90;;;;;;5017057;28;885;-49
2021/11/12 03:13:34;;;;;;;;;;;14.30;99.90;;;;;;5030726;28;1898;-49
2021/11/12 03:16:00;;;;;;;;;;;14.20;99.90;;;;;;5035680;28;1095;-49
2021/11/12 03:18:27;;;;;;;;;;;14.20;99.90;;;;;;5035227;28;911;-49
2021/11/12 03:20:53;;;;;;;;;;;14.20;99.90;;;;;;5035147;28;954;-50
2021/11/12 03:23:24;;;;;;;;;;;14.20;99.90;;;;;;5035032;28;917;-51
2021/11/12 03:26:08;;;;;;;;;;;14.20;99.90;;;;;;5035141;28;833;-51
2021/11/12 04:04:05;;;;;;;;;;;14.00;99.90;;;;;;5034951;28;771;-51
2021/11/12 04:30:57;;;;;;;;;;;13.90;99.90;;;;;;5036970;28;776;-51
2021/11/12 05:50:52;;;;;;;;;;;13.60;99.90;;;;;;5036752;28;925;-50
2021/11/12 05:55:48;;;;;;;;;;;13.60;99.90;;;;;;5034377;28;944;-51
2021/11/12 05:58:14;;;;;;;;;;;13.60;99.90;;;;;;5035691;28;1015;-51
2021/11/12 06:00:40;;;;;;;;;;;13.60;99.90;;;;;;5036549;28;852;-51
2021/11/12 06:03:06;;;;;;;;;;;13.70;99.90;;;;;;5019151;28;858;-52
2021/11/12 06:05:32;;;;;;;;;;;13.70;99.90;;;;;;5036848;28;851;-49
2021/11/12 06:07:58;;;;;;;;;;;13.80;99.90;;;;;;5012482;28;1399;-49
2021/11/12 06:10:24;;;;;;;;;;;13.80;99.90;;;;;;5018176;28;1018;-50
2021/11/12 06:12:51;;;;;;;;;;;13.90;99.90;;;;;;5018372;28;1901;-49
2021/11/12 06:15:18;;;;;;;;;;;14.00;99.90;;;;;;5029178;28;1210;-49
2021/11/12 06:17:45;;;;;;;;;;;14.10;99.90;;;;;;5036104;28;808;-51
2021/11/12 06:20:13;;;;;;;;;;;14.20;99.90;;;;;;5035930;28;852;-50
2021/11/12 06:22:39;;;;;;;;;;;14.30;99.90;;;;;;5003367;28;1079;-49
2021/11/12 06:25:06;;;;;;;;;;;14.40;99.90;;;;;;5036014;28;853;-49
2021/11/12 06:27:31;;;;;;;;;;;14.40;99.90;;;;;;5036366;28;810;-51
2021/11/12 06:29:57;;;;;;;;;;;14.40;99.90;;;;;;5036251;28;802;-51
2021/11/12 06:32:23;;;;;;;;;;;14.50;99.90;;;;;;5035565;28;1915;-49
2021/11/12 06:34:51;;;;;;;;;;;14.50;99.90;;;;;;5035915;28;797;-51
2021/11/12 06:37:17;;;;;;;;;;;14.50;99.90;;;;;;5035702;28;862;-49
2021/11/12 06:39:43;;;;;;;;;;;14.50;99.90;;;;;;5035732;28;738;-49
2021/11/12 06:42:19;;;;;;;;;;;14.70;99.90;;;;;;5035656;28;822;-49
2021/11/12 06:52:28;;;;;;;;;;;15.30;99.90;;;;;;5035654;28;2001;-49
2021/11/12 06:54:55;;;;;;;;;;;15.40;99.90;;;;;;5035592;28;1433;-49
2021/11/12 06:57:22;;;;;;;;;;;15.60;99.90;;;;;;5035922;28;840;-49
2021/11/12 06:59:49;;;;;;;;;;;15.60;99.90;;;;;;5017953;28;869;-50
2021/11/12 07:02:16;;;;;;;;;;;15.70;99.90;;;;;;5035888;28;1038;-51
2021/11/12 07:04:42;;;;;;;;;;;15.70;99.90;;;;;;5031040;28;1425;-51
2021/11/12 07:07:09;;;;;;;;;;;15.80;99.90;;;;;;5035486;28;1285;-49
2021/11/12 07:09:36;;;;;;;;;;;15.80;99.90;;;;;;5035945;28;1032;-49
2021/11/12 07:12:02;;;;;;;;;;;15.80;99.90;;;;;;5016650;28;1972;-51
2021/11/12 07:14:28;;;;;;;;;;;15.90;99.90;;;;;;5022444;28;807;-50
2021/11/12 07:16:54;;;;;;;;;;;15.90;99.90;;;;;;5034595;28;1161;-51
2021/11/12 07:19:20;;;;;;;;;;;15.80;99.90;;;;;;5017766;28;931;-49
2021/11/12 07:21:46;;;;;;;;;;;15.80;99.90;;;;;;5034707;28;1030;-49
2021/11/12 07:24:13;;;;;;;;;;;15.80;99.90;;;;;;5034568;28;918;-51
2021/11/12 07:26:39;;;;;;;;;;;15.80;99.90;;;;;;5035113;28;767;-52
2021/11/12 07:29:05;;;;;;;;;;;15.80;99.90;;;;;;5035485;28;767;-49
2021/11/12 07:31:32;;;;;;;;;;;15.80;99.90;;;;;;5035069;28;858;-49
2021/11/12 07:33:59;;;;;;;;;;;15.80;99.90;;;;;;5034851;28;1910;-51
2021/11/12 07:36:34;;;;;;;;;;;15.90;99.90;;;;;;5034277;28;869;-51
2021/11/12 07:39:06;;;;;;;;;;;15.90;99.90;;;;;;5034541;28;1015;-49
2021/11/12 07:48:59;;;;;;;;;;;16.00;99.90;;;;;;5039291;28;860;-49
2021/11/12 07:51:25;;;;;;;;;;;16.00;99.90;;;;;;5039149;28;783;-49
2021/11/12 07:53:52;;;;;;;;;;;16.00;99.90;;;;;;5038084;28;1963;-49
2021/11/12 07:56:18;;;;;;;;;;;16.00;99.90;;;;;;5038833;28;1019;-50
2021/11/12 07:58:45;;;;;;;;;;;16.10;99.90;;;;;;5038827;28;762;-49
2021/11/12 08:01:11;;;;;;;;;;;16.10;99.90;;;;;;5033420;28;931;-49
2021/11/12 08:03:37;;;;;;;;;;;16.10;99.90;;;;;;5020629;28;834;-49
2021/11/12 08:06:05;;;;;;;;;;;16.10;99.90;;;;;;5020534;28;930;-49
2021/11/12 08:08:35;;;;;;;;;;;16.10;99.90;;;;;;5003144;28;1121;-49
2021/11/12 08:11:13;;;;;;;;;;;16.10;99.90;;;;;;5020404;28;888;-50
2021/11/12 08:13:45;;;;;;;;;;;16.20;99.90;;;;;;5035079;28;1993;-49
2021/11/12 08:16:35;;;;;;;;;;;16.20;99.90;;;;;;5020048;28;1143;-49
2021/11/12 08:19:09;;;;;;;;;;;16.40;99.90;;;;;;5035524;28;1030;-49
2021/11/12 08:24:09;;;;;;;;;;;16.60;99.90;;;;;;5031247;28;1291;-49
2021/11/12 08:26:47;;;;;;;;;;;16.50;99.90;;;;;;5031694;28;1241;-49
2021/11/12 08:29:25;;;;;;;;;;;16.50;99.90;;;;;;5014333;28;1241;-49
2021/11/12 08:34:23;;;;;;;;;;;16.40;99.90;;;;;;5027905;28;1906;-51
2021/11/12 08:42:06;;;;;;;;;;;16.50;99.90;;;;;;5037130;28;1705;-50
2021/11/12 08:44:37;;;;;;;;;;;16.50;99.90;;;;;;5023753;28;1565;-49
2021/11/12 08:49:36;;;;;;;;;;;16.60;99.90;;;;;;5002716;28;1336;-50
2021/11/12 08:52:03;;;;;;;;;;;16.60;99.90;;;;;;5019623;28;1680;-51
2021/11/12 08:54:35;;;;;;;;;;;16.60;99.90;;;;;;5037018;28;1910;-50
2021/11/12 08:57:06;;;;;;;;;;;16.70;99.90;;;;;;5037556;28;771;-51
2021/11/12 08:59:32;;;;;;;;;;;16.70;99.90;;;;;;5010514;28;1665;-51
2021/11/12 09:01:59;;;;;;;;;;;16.70;99.90;;;;;;4997727;28;807;-51
2021/11/12 09:04:25;;;;;;;;;;;16.70;99.90;;;;;;4997800;28;976;-51
2021/11/12 09:06:51;;;;;;;;;;;16.70;99.90;;;;;;5012742;28;1422;-51
2021/11/12 09:09:17;;;;;;;;;;;16.70;99.90;;;;;;5015739;28;1178;-49
2021/11/12 09:11:43;;;;;;;;;;;16.60;99.90;;;;;;5016307;28;865;-50
2021/11/12 09:14:16;;;;;;;;;;;16.60;99.90;;;;;;5009576;28;1910;-49
2021/11/12 09:16:44;;;;;;;;;;;16.60;99.90;;;;;;5004110;28;1593;-49
2021/11/12 09:19:13;;;;;;;;;;;16.60;99.90;;;;;;4997941;28;913;-49
2021/11/12 09:21:40;;;;;;;;;;;16.70;99.90;;;;;;4997826;28;993;-49
2021/11/12 09:24:06;;;;;;;;;;;16.70;99.90;;;;;;4997172;28;880;-51
2021/11/12 09:26:36;;;;;;;;;;;16.80;99.90;;;;;;4997787;28;858;-49
2021/11/12 09:29:06;;;;;;;;;;;16.80;99.90;;;;;;5010598;28;863;-49
2021/11/12 09:31:32;;;;;;;;;;;16.80;99.90;;;;;;5017144;28;995;-49
2021/11/12 09:34:01;;;;;;;;;;;16.80;99.90;;;;;;5016520;28;1965;-51
2021/11/12 09:36:27;;;;;;;;;;;16.80;99.90;;;;;;5015733;28;1227;-49
2021/11/12 09:38:53;;;;;;;;;;;16.90;99.90;;;;;;4999034;28;945;-49
2021/11/12 09:41:19;;;;;;;;;;;16.90;99.90;;;;;;4998782;28;920;-49
2021/11/12 09:43:49;;;;;;;;;;;16.90;99.90;;;;;;4999285;28;906;-51
2021/11/12 09:46:15;;;;;;;;;;;16.90;99.90;;;;;;5017219;28;842;-50
2021/11/12 09:48:41;;;;;;;;;;;17.00;99.90;;;;;;5016917;28;875;-51
2021/11/12 09:51:08;;;;;;;;;;;17.00;99.90;;;;;;5008923;28;1620;-49
2021/11/12 09:53:35;;;;;;;;;;;17.00;99.90;;;;;;4999659;28;2312;-49
2021/11/12 09:56:02;;;;;;;;;;;17.00;99.90;;;;;;4998951;28;847;-49
2021/11/12 09:58:30;;;;;;;;;;;17.00;99.90;;;;;;4997854;28;1143;-51
2021/11/12 10:00:58;;;;;;;;;;;17.00;99.90;;;;;;4999076;28;850;-50
2021/11/12 10:03:34;;;;;;;;;;;17.00;99.90;;;;;;5011895;28;963;-49
2021/11/12 10:06:16;;;;;;;;;;;17.00;99.90;;;;;;5016790;28;1144;-51
2021/11/12 10:08:42;;;;;;;;;;;17.20;99.90;;;;;;5014717;28;911;-51
2021/11/12 10:11:10;;;;;;;;;;;17.20;99.90;;;;;;5016362;28;838;-51
2021/11/12 10:13:44;;;;;;;;;;;17.30;99.90;;;;;;5016405;28;1902;-51
2021/11/12 10:18:59;;;;;;;;;;;17.40;99.90;;;;;;5028339;28;915;-51
2021/11/12 10:21:44;;;;;;;;;;;17.40;99.90;;;;;;5032884;28;974;-49
2021/11/12 10:24:16;;;;;;;;;;;17.50;99.90;;;;;;5016604;28;797;-50
2021/11/12 10:26:52;;;;;;;;;;;17.60;99.90;;;;;;5030205;28;1356;-51
2021/11/12 10:29:24;;;;;;;;;;;17.70;99.90;;;;;;5023312;28;1077;-49
2021/11/12 10:31:58;;;;;;;;;;;17.90;99.90;;;;;;5018184;28;850;-49
2021/11/12 10:34:26;;;;;;;;;;;18.00;99.90;;;;;;5028437;28;1910;-51
2021/11/12 10:37:07;;;;;;;;;;;18.10;99.90;;;;;;5032592;28;1046;-52
2021/11/12 10:39:41;;;;;;;;;;;18.20;99.90;;;;;;5017906;28;972;-51
2021/11/12 10:42:10;;;;;;;;;;;18.20;99.90;;;;;;5026261;28;1489;-51
2021/11/12 10:44:40;;;;;;;;;;;18.20;99.90;;;;;;5022025;28;1042;-51
2021/11/12 10:47:07;;;;;;;;;;;18.10;99.90;;;;;;5024562;28;1093;-51
2021/11/12 10:49:35;;;;;;;;;;;18.20;99.90;;;;;;5001978;28;1383;-51
2021/11/12 10:52:08;;;;;;;;;;;18.20;99.90;;;;;;5021360;28;1009;-49
2021/11/12 10:54:56;;;;;;;;;;;18.30;99.90;;;;;;5034715;28;1910;-49
2021/11/12 10:57:30;;;;;;;;;;;18.40;99.90;;;;;;5035176;28;1419;-49
2021/11/12 11:00:11;;;;;;;;;;;18.40;99.90;;;;;;5023710;28;1270;-51
2021/11/12 11:02:39;;;;;;;;;;;18.40;99.90;;;;;;5017137;28;848;-51
2021/11/12 11:05:16;;;;;;;;;;;18.50;99.90;;;;;;5017395;28;867;-50
2021/11/12 11:07:45;;;;;;;;;;;18.50;99.90;;;;;;5016843;28;1562;-52
2021/11/12 11:10:20;;;;;;;;;;;18.50;99.90;;;;;;5028424;28;1049;-52
2021/11/12 11:12:46;;;;;;;;;;;18.60;99.90;;;;;;5000684;28;1969;-51
2021/11/12 11:15:12;;;;;;;;;;;18.60;99.90;;;;;;5028114;28;1325;-51
2021/11/12 11:17:41;;;;;;;;;;;18.60;99.90;;;;;;5027041;28;1124;-52
2021/11/12 11:20:10;;;;;;;;;;;18.60;99.90;;;;;;5027375;28;1250;-52
2021/11/12 11:22:47;;;;;;;;;;;18.60;99.90;;;;;;5024860;28;1351;-52
2021/11/12 11:25:13;;;;;;;;;;;18.50;99.90;;;;;;5017213;28;1196;-51
2021/11/12 11:27:42;;;;;;;;;;;18.20;99.90;;;;;;5017369;28;802;-50
2021/11/12 11:30:10;;;;;;;;;;;18.00;99.90;;;;;;5016794;28;1203;-50
2021/11/12 11:32:36;;;;;;;;;;;17.80;99.90;;;;;;5019601;28;1914;-49
2021/11/12 11:35:02;;;;;;;;;;;17.80;99.90;;;;;;5032227;28;1521;-51
2021/11/12 11:37:29;;;;;;;;;;;17.90;99.90;;;;;;5027213;28;1197;-51
2021/11/12 11:39:56;;;;;;;;;;;18.00;99.90;;;;;;5005422;28;1128;-50
2021/11/12 11:42:22;;;;;;;;;;;18.10;99.90;;;;;;5025131;28;1086;-49
2021/11/12 11:44:48;;;;;;;;;;;18.10;99.90;;;;;;5024394;28;826;-51
2021/11/12 11:47:19;;;;;;;;;;;18.00;99.90;;;;;;5030198;28;1066;-49
2021/11/12 11:49:50;;;;;;;;;;;18.00;99.90;;;;;;5030058;28;959;-49
2021/11/12 11:52:25;;;;;;;;;;;18.00;99.90;;;;;;5024074;28;963;-51
2021/11/12 11:54:53;;;;;;;;;;;18.00;99.90;;;;;;5023998;28;1906;-51
2021/11/12 11:57:20;;;;;;;;;;;18.00;99.90;;;;;;5031339;28;1109;-52
2021/11/12 11:59:47;;;;;;;;;;;18.10;99.90;;;;;;5006613;28;1375;-52
2021/11/12 12:02:31;;;;;;;;;;;18.10;99.90;;;;;;5034148;28;906;-53
2021/11/12 12:04:58;;;;;;;;;;;18.10;99.90;;;;;;5030152;28;1403;-52
2021/11/12 12:07:28;;;;;;;;;;;18.00;99.90;;;;;;5030790;28;1145;-50
2021/11/12 12:09:59;;;;;;;;;;;18.10;99.90;;;;;;5024075;28;1677;-50
2021/11/12 12:12:31;;;;;;;;;;;18.20;99.90;;;;;;5021620;28;1473;-51
2021/11/12 12:15:12;;;;;;;;;;;18.20;99.90;;;;;;5001543;28;1910;-50
2021/11/12 12:17:39;;;;;;;;;;;18.20;99.90;;;;;;5020504;28;1617;-50
2021/11/12 13:22:47;;;;;;;;;;;17.50;99.90;;;;;;5022807;28;837;-50
2021/11/12 13:25:30;;;;;;;;;;;17.50;99.90;;;;;;5036401;28;968;-52
2021/11/12 13:28:05;;;;;;;;;;;17.40;99.90;;;;;;5019357;28;901;-52
2021/11/12 13:30:31;;;;;;;;;;;17.40;99.90;;;;;;5019191;28;855;-52
2021/11/12 13:32:57;;;;;;;;;;;17.40;99.90;;;;;;5019137;28;1979;-50
2021/11/12 13:35:34;;;;;;;;;;;17.30;99.90;;;;;;5019033;28;853;-50
2021/11/12 13:38:01;;;;;;;;;;;17.30;99.90;;;;;;5018972;28;821;-52
2021/11/12 13:40:32;;;;;;;;;;;17.20;99.90;;;;;;5017993;28;982;-52
2021/11/12 13:42:58;;;;;;;;;;;17.20;99.90;;;;;;5018085;28;818;-52
2021/11/12 13:45:25;;;;;;;;;;;17.10;99.90;;;;;;5030689;28;763;-52
2021/11/12 13:48:14;;;;;;;;;;;17.10;99.90;;;;;;5002933;28;847;-50
2021/11/12 13:51:00;;;;;;;;;;;17.10;99.90;;;;;;5037282;28;843;-52
2021/11/12 13:53:28;;;;;;;;;;;17.00;99.90;;;;;;5022844;28;1963;-50
2021/11/12 13:55:55;;;;;;;;;;;17.00;99.90;;;;;;5017839;28;908;-50
2021/11/12 13:58:23;;;;;;;;;;;16.90;99.90;;;;;;5018833;28;905;-50
2021/11/12 14:00:49;;;;;;;;;;;16.90;99.90;;;;;;5017862;28;987;-50
2021/11/12 14:03:21;;;;;;;;;;;16.90;99.90;;;;;;5018348;28;910;-50
2021/11/12 14:05:55;;;;;;;;;;;16.80;99.90;;;;;;5018358;28;849;-52
2021/11/12 14:08:21;;;;;;;;;;;16.80;99.90;;;;;;5018411;28;802;-52
2021/11/12 14:10:48;;;;;;;;;;;16.70;99.90;;;;;;5017974;28;861;-50
2021/11/12 14:13:16;;;;;;;;;;;16.70;99.90;;;;;;5018649;28;1973;-50
2021/11/12 14:16:09;;;;;;;;;;;16.70;99.90;;;;;;5032737;28;999;-50
2021/11/12 14:18:55;;;;;;;;;;;16.60;99.90;;;;;;5036734;28;1026;-52
2021/11/12 14:21:34;;;;;;;;;;;16.60;99.90;;;;;;5036314;28;841;-52
2021/11/12 14:24:26;;;;;;;;;;;16.60;99.90;;;;;;5017287;28;989;-52
2021/11/12 14:27:14;;;;;;;;;;;16.50;99.90;;;;;;5017138;28;1127;-50
2021/11/12 14:48:15;;;;;;;;;;;16.30;99.90;;;;;;5035765;28;832;-52
2021/11/12 14:50:52;;;;;;;;;;;16.20;99.90;;;;;;5035651;28;1054;-52
2021/11/12 14:53:40;;;;;;;;;;;16.20;99.90;;;;;;5034269;28;1971;-50
2021/11/12 14:58:39;;;;;;;;;;;16.10;99.90;;;;;;5035589;28;790;-50
2021/11/12 15:01:10;;;;;;;;;;;16.10;99.90;;;;;;5017843;28;965;-52
2021/11/12 15:03:38;;;;;;;;;;;16.10;99.90;;;;;;5033831;28;794;-50
2021/11/12 15:06:04;;;;;;;;;;;16.10;99.90;;;;;;5024664;28;1326;-51
2021/11/12 15:08:31;;;;;;;;;;;16.10;99.90;;;;;;5017168;28;802;-52
2021/11/12 15:10:59;;;;;;;;;;;16.00;99.90;;;;;;5016750;28;1050;-52
2021/11/12 15:13:28;;;;;;;;;;;16.00;99.90;;;;;;5016699;28;1974;-52
2021/11/12 15:15:55;;;;;;;;;;;15.90;99.90;;;;;;5032635;28;1053;-50
2021/11/12 15:18:22;;;;;;;;;;;15.90;99.90;;;;;;5034884;28;914;-51
2021/11/12 15:20:49;;;;;;;;;;;15.90;99.90;;;;;;5034792;28;1090;-50
2021/11/12 15:29:06;;;;;;;;;;;15.80;99.90;;;;;;4980243;28;1378;-51
2021/11/12 15:34:18;;;;;;;;;;;15.80;99.90;;;;;;5035282;28;1965;-52
2021/11/12 15:37:01;;;;;;;;;;;15.80;99.90;;;;;;5034587;28;986;-52
2021/11/12 15:44:37;;;;;;;;;;;15.70;99.90;;;;;;5034910;28;778;-51
2021/11/12 15:47:06;;;;;;;;;;;15.70;99.90;;;;;;5016774;28;797;-52
2021/11/12 15:49:33;;;;;;;;;;;15.70;99.90;;;;;;4999167;28;1053;-52
2021/11/12 15:52:03;;;;;;;;;;;15.70;99.90;;;;;;5001989;28;1125;-52
2021/11/12 15:55:36;;;;;;;;;;;15.60;99.90;;;;;;5034742;28;1906;-50
2021/11/12 16:00:04;;;;;;;;;;;15.60;99.90;;;;;;5035000;28;998;-49
2021/11/12 16:07:56;;;;;;;;;;;15.50;99.90;;;;;;5026138;28;801;-51
2021/11/12 16:15:53;;;;;;;;;;;15.40;99.90;;;;;;5028010;28;1902;-50
2021/11/12 16:26:29;;;;;;;;;;;15.30;99.90;;;;;;5017825;28;1236;-52
2021/11/12 16:29:23;;;;;;;;;;;15.30;99.90;;;;;;5038495;28;824;-51
2021/11/12 16:31:49;;;;;;;;;;;15.30;99.90;;;;;;5037505;28;1132;-52
2021/11/12 16:34:18;;;;;;;;;;;15.30;99.90;;;;;;5038156;28;1914;-51
2021/11/12 16:37:01;;;;;;;;;;;15.30;99.90;;;;;;5038509;28;823;-52
2021/11/12 16:42:27;;;;;;;;;;;15.20;99.90;;;;;;5034230;28;906;-51
2021/11/12 17:06:16;;;;;;;;;;;15.00;99.90;;;;;;5026847;28;855;-49
2021/11/12 17:21:52;;;;;;;;;;;14.90;99.90;;;;;;5037306;28;890;-51
2021/11/12 18:04:40;;;;;;;;;;;14.70;99.90;;;;;;5018543;28;823;-51
2021/11/12 18:07:30;;;;;;;;;;;14.70;99.90;;;;;;5036453;28;868;-51
2021/11/12 18:12:43;;;;;;;;;;;14.70;99.90;;;;;;5036385;28;903;-51
2021/11/12 21:45:42;;;;;;;;;;;14.10;99.90;;;;;;5025051;28;748;-51
2021/11/12 21:48:09;;;;;;;;;;;14.10;99.90;;;;;;5001110;28;913;-51
2021/11/12 21:50:36;;;;;;;;;;;14.10;99.90;;;;;;5001638;28;1015;-51
2021/11/12 21:53:04;;;;;;;;;;;14.10;99.90;;;;;;5029692;28;984;-51
2021/11/12 21:55:30;;;;;;;;;;;14.10;99.90;;;;;;5036849;28;1906;-49
2021/11/12 21:57:56;;;;;;;;;;;14.10;99.90;;;;;;5036620;28;776;-49
2021/11/12 22:00:22;;;;;;;;;;;14.10;99.90;;;;;;5019249;28;924;-51
2021/11/12 22:02:48;;;;;;;;;;;14.10;99.90;;;;;;5036662;28;869;-51
2021/11/12 22:05:14;;;;;;;;;;;14.10;99.90;;;;;;5038023;28;1386;-49
2021/11/12 22:07:40;;;;;;;;;;;14.00;99.90;;;;;;5026056;28;822;-49
2021/11/12 22:10:06;;;;;;;;;;;14.00;99.90;;;;;;5018409;28;772;-51
2021/11/12 22:12:33;;;;;;;;;;;14.00;99.90;;;;;;5018101;28;858;-51
2021/11/12 22:14:59;;;;;;;;;;;14.00;99.90;;;;;;5018325;28;1910;-49
2021/11/12 22:17:25;;;;;;;;;;;14.00;99.90;;;;;;5017968;28;879;-49
2021/11/12 22:19:51;;;;;;;;;;;13.90;99.90;;;;;;5018072;28;813;-49
2021/11/12 22:22:17;;;;;;;;;;;14.00;99.90;;;;;;5017406;28;885;-49
2021/11/12 22:24:43;;;;;;;;;;;13.90;99.90;;;;;;5018050;28;787;-49
2021/11/12 22:27:09;;;;;;;;;;;13.90;99.90;;;;;;5017660;28;859;-49
2021/11/12 22:29:35;;;;;;;;;;;13.90;99.90;;;;;;5018049;28;883;-49
2021/11/12 22:32:02;;;;;;;;;;;13.90;99.90;;;;;;5017439;28;1475;-49
2021/11/12 22:34:28;;;;;;;;;;;13.90;99.90;;;;;;5017825;28;1909;-49
2021/11/12 22:36:54;;;;;;;;;;;13.90;99.90;;;;;;5016812;28;1011;-49
2021/11/12 22:39:22;;;;;;;;;;;13.90;99.90;;;;;;5017811;28;786;-49
2021/11/12 22:41:48;;;;;;;;;;;13.90;99.90;;;;;;5017238;28;941;-49
2021/11/12 22:44:15;;;;;;;;;;;13.80;99.90;;;;;;5017771;28;985;-49
2021/11/12 22:46:41;;;;;;;;;;;13.80;99.90;;;;;;5017617;28;940;-49
2021/11/12 22:49:07;;;;;;;;;;;13.80;99.90;;;;;;5017653;28;829;-49
2021/11/12 22:51:34;;;;;;;;;;;13.80;99.90;;;;;;5017714;28;845;-49
2021/11/12 22:54:00;;;;;;;;;;;13.80;99.90;;;;;;5035294;28;888;-49
2021/11/12 22:56:27;;;;;;;;;;;13.80;99.90;;;;;;5035460;28;1902;-49
2021/11/12 22:58:53;;;;;;;;;;;13.80;99.90;;;;;;5035115;28;874;-49
2021/11/12 23:01:21;;;;;;;;;;;13.80;99.90;;;;;;5035878;28;890;-49
2021/11/12 23:03:47;;;;;;;;;;;13.80;99.90;;;;;;5035412;28;942;-49
2021/11/12 23:06:13;;;;;;;;;;;13.80;99.90;;;;;;5035683;28;783;-49
2021/11/12 23:08:39;;;;;;;;;;;13.70;99.90;;;;;;5029766;28;983;-49
2021/11/12 23:11:06;;;;;;;;;;;13.70;99.90;;;;;;5035298;28;735;-49
2021/11/12 23:13:32;;;;;;;;;;;13.70;99.90;;;;;;5034540;28;913;-49
2021/11/12 23:15:58;;;;;;;;;;;13.70;99.90;;;;;;5030807;28;1910;-49
2021/11/12 23:18:26;;;;;;;;;;;13.70;99.90;;;;;;5017233;28;751;-49
2021/11/12 23:20:52;;;;;;;;;;;13.70;99.90;;;;;;5019366;28;799;-49
2021/11/12 23:23:19;;;;;;;;;;;13.70;99.90;;;;;;5030554;28;828;-49
2021/11/12 23:25:45;;;;;;;;;;;13.70;99.90;;;;;;4999769;28;1388;-51
2021/11/12 23:28:11;;;;;;;;;;;13.70;99.90;;;;;;5017218;28;870;-51
2021/11/12 23:30:37;;;;;;;;;;;13.70;99.90;;;;;;5017325;28;840;-51
2021/11/12 23:33:03;;;;;;;;;;;13.70;99.90;;;;;;5017066;28;760;-51
2021/11/12 23:35:29;;;;;;;;;;;13.60;99.90;;;;;;5016946;28;1914;-51
2021/11/12 23:37:55;;;;;;;;;;;13.60;99.90;;;;;;5016972;28;948;-51
2021/11/12 23:40:21;;;;;;;;;;;13.60;99.90;;;;;;5016702;28;810;-51
2021/11/12 23:42:49;;;;;;;;;;;13.60;99.90;;;;;;5016794;28;821;-51
2021/11/12 23:45:15;;;;;;;;;;;13.60;99.90;;;;;;5016496;28;934;-51
2021/11/12 23:47:42;;;;;;;;;;;13.60;99.90;;;;;;5016358;28;846;-51
2021/11/12 23:50:08;;;;;;;;;;;13.60;99.90;;;;;;5016483;28;1010;-51
2021/11/12 23:52:34;;;;;;;;;;;13.60;99.90;;;;;;5024420;28;821;-51
2021/11/12 23:55:04;;;;;;;;;;;13.60;99.90;;;;;;5034023;28;1982;-49
2021/11/12 23:57:31;;;;;;;;;;;13.60;99.90;;;;;;5034527;28;905;-49
2021/11/12 23:59:57;;;;;;;;;;;13.60;99.90;;;;;;5034387;28;874;-49
